Home > Products > Valid Products > TAF

000
FTUS42 KJAX 230500
TAFGNV
TAF
KGNV 230520Z 2306/2406 25004KT P6SM SCT060
     FM230800 29003KT 3SM BR SCT005
      TEMPO 2308/2312 1SM BR BKN005
     FM231200 29007KT P6SM SCT060=



000
FTUS42 KJAX 230500
TAFJAX
TAF
KJAX 230520Z 2306/2406 25007KT P6SM SCT060
     FM231200 29008KT P6SM SCT070
     FM232200 12007KT P6SM SCT060=



000
FTUS42 KJAX 230500
TAFSSI
TAF
KSSI 230520Z 2306/2406 24007KT P6SM BKN060
     FM231200 29008KT P6SM SCT070
     FM231800 13010KT P6SM SCT060=



000
FTUS42 KJAX 230500
TAFCRG
TAF
KCRG 230520Z 2306/2406 25007KT P6SM SCT060
     FM231200 29008KT P6SM SCT070
     FM232000 12007KT P6SM SCT060=



000
FTUS42 KJAX 230100 AAA
TAFJAX
TAF AMD
KJAX 230112Z 2301/2324 25007KT P6SM SCT050
     FM231000 27005KT 6SM BR SCT007
     FM231400 28006KT P6SM SCT250
     FM232100 12008KT P6SM SCT060=



000
FTUS42 KJAX 222300
TAFSSI
TAF
KSSI 222324Z 2300/2324 26008KT P6SM BKN060
     FM230200 26007KT P6SM VCSH BKN050 BKN100
     FM230600 26006KT P6SM SCT009 SCT060
     FM231300 29008KT P6SM SCT080
     FM231700 11009KT P6SM SKC=



000
FTUS42 KJAX 222300
TAFGNV
TAF
KGNV 222324Z 2300/2324 25008KT P6SM SCT040
     FM231000 29004KT 5SM BR BKN003
     FM231300 29007KT P6SM SCT250=



000
FTUS42 KJAX 222300
TAFCRG
TAF
KCRG 222324Z 2300/2324 27007KT P6SM SCT060
     FM231200 31007KT P6SM SCT250
     FM232000 11009KT P6SM SKC=



000
FTUS42 KJAX 222300
TAFJAX
TAF
KJAX 222324Z 2300/2324 26007KT P6SM SCT050
     FM231000 27005KT 6SM BR BKN010
     FM231400 28006KT P6SM SCT250
     FM232100 12008KT P6SM SCT060=



000
FTUS42 KJAX 222000 AAA
TAFGNV
TAF AMD
KGNV 222026Z 2220/2318 26010KT P6SM SCT040 BKN250
     FM230000 24005KT P6SM SCT050
     FM231000 29004KT 5SM BR SKC
      TEMPO 2312/2314 4SM BR OVC003
     FM231500 29007KT P6SM SCT250=



000
FTUS42 KJAX 221700
TAFGNV
TAF
KGNV 221724Z 2218/2318 27008KT P6SM SCT040 BKN250
     FM230000 24005KT P6SM SCT050
     FM231000 29004KT 5SM BR SKC
      TEMPO 2312/2314 4SM BR OVC003
     FM231500 29007KT P6SM SCT250=



000
FTUS42 KJAX 221700
TAFJAX
TAF
KJAX 221724Z 2218/2318 25009KT P6SM SCT040 BKN250
     FM230000 24006KT P6SM SCT050 BKN150
     FM231400 29006KT P6SM SCT250=



000
FTUS42 KJAX 221700
TAFSSI
TAF
KSSI 221724Z 2218/2318 24008KT P6SM SCT040 BKN250
     FM222000 21010KT P6SM SCT040 BKN150
     FM230200 23007KT P6SM VCSH BKN050 BKN100
     FM230600 26005KT P6SM BKN100=



000
FTUS42 KJAX 221700
TAFCRG
TAF
KCRG 221724Z 2218/2318 24009KT P6SM SCT040 BKN250
     FM230100 26007KT P6SM SCT050 BKN150
     FM231200 31007KT P6SM BKN250=



000
FTUS42 KJAX 221200 AAB
TAFGNV
TAF AMD
KGNV 221211Z 2212/2312 00000KT 5SM BR SCT250
      TEMPO 2212/2213 3SM BR SCT001
     FM221300 25008KT P6SM SCT040 BKN250
     FM230000 24005KT P6SM SCT050=



000
FTUS42 KJAX 221100 AAA
TAFGNV
TAF AMD
KGNV 221150Z 2212/2312 00000KT 5SM BR SCT250
      TEMPO 2212/2213 1/4SM FG VV001
     FM221300 25008KT P6SM SCT040 BKN250
     FM230000 24005KT P6SM SCT050=



000
FTUS42 KJAX 221100
TAFGNV
TAF
KGNV 221120Z 2212/2312 00000KT 5SM BR SCT250
      TEMPO 2212/2213 2SM BR
     FM221300 25008KT P6SM SCT040 BKN250
     FM230000 24005KT P6SM SCT050=



000
FTUS42 KJAX 221100
TAFSSI
TAF
KSSI 221120Z 2212/2312 00000KT P6SM SCT250
     FM221400 24008KT P6SM SCT040 BKN250
     FM222000 18010KT P6SM SCT040 BKN150
     FM230100 23007KT P6SM VCSH BKN050=



000
FTUS42 KJAX 221100
TAFCRG
TAF
KCRG 221120Z 2212/2312 00000KT P6SM SCT250
     FM221400 25008KT P6SM SCT040 BKN250
     FM222000 18010KT P6SM SCT040 BKN250
     FM230100 23007KT P6SM SCT050 BKN150=



000
FTUS42 KJAX 221100
TAFJAX
TAF
KJAX 221120Z 2212/2312 00000KT P6SM SCT250
     FM221400 25008KT P6SM SCT040 BKN250
     FM230000 24006KT P6SM SCT050 BKN150=



000
FTUS42 KJAX 221000 AAD
TAFGNV
TAF AMD
KGNV 221041Z 2211/2306 00000KT 5SM BR SCT250
      TEMPO 2211/2212 1/2SM FG BKN002
     FM221300 25007KT P6SM SCT040 BKN250=



000
FTUS42 KJAX 221000 AAC
TAFGNV
TAF AMD
KGNV 221015Z 2210/2306 00000KT 5SM BR SCT250
      TEMPO 2210/2212 BKN002
     FM221300 25007KT P6SM SCT040 BKN250=



000
FTUS42 KJAX 220900 AAB
TAFGNV
TAF AMD
KGNV 220949Z 2210/2306 00000KT 4SM BR SCT250
      TEMPO 2210/2212 2SM BR BKN005
     FM221300 25007KT P6SM SCT040 BKN250=



000
FTUS42 KJAX 220700 AAA
TAFGNV
TAF AMD
KGNV 220730Z 2208/2306 00000KT 5SM BR SCT250
      TEMPO 2208/2212 2SM BR BKN002
     FM221400 25008KT P6SM SCT040 BKN250=



000
FTUS42 KJAX 220500
TAFGNV
TAF
KGNV 220520Z 2206/2306 00000KT 5SM BR SCT250
      TEMPO 2207/2211 2SM BR
     FM221400 25008KT P6SM SCT040 BKN250=



000
FTUS42 KJAX 220500
TAFJAX
TAF
KJAX 220520Z 2206/2306 00000KT P6SM SCT250
     FM221400 25008KT P6SM SCT040 BKN250=



000
FTUS42 KJAX 220500
TAFSSI
TAF
KSSI 220520Z 2206/2306 00000KT P6SM SCT250
     FM221400 24008KT P6SM SCT040 BKN250
     FM222000 18010KT P6SM SCT040 BKN150
     FM230000 22007KT P6SM VCSH BKN050=



000
FTUS42 KJAX 220500
TAFCRG
TAF
KCRG 220520Z 2206/2306 00000KT P6SM SCT250
     FM221400 25008KT P6SM SCT040 BKN250
     FM222000 18010KT P6SM SCT040 BKN250=



000
FTUS42 KJAX 212300
TAFSSI
TAF
KSSI 212328Z 2200/2224 VRB03KT P6SM SKC
     FM221400 25007KT P6SM FEW040 SCT250
     FM221900 18009KT P6SM FEW050=



000
FTUS42 KJAX 212300
TAFJAX
TAF
KJAX 212328Z 2200/2224 VRB03KT P6SM FEW040
     FM221400 25008KT P6SM FEW040 SCT250=



000
FTUS42 KJAX 212300
TAFGNV
TAF
KGNV 212328Z 2200/2224 VRB03KT P6SM FEW040
      TEMPO 2208/2212 4SM BR
     FM221400 26008KT P6SM FEW040 SCT250=



000
FTUS42 KJAX 212300
TAFCRG
TAF
KCRG 212328Z 2200/2224 VRB03KT P6SM FEW040
     FM221400 26008KT P6SM FEW040 SCT250=



000
FTUS42 KJAX 211700 RRA
TAFSSI
TAF
KSSI 211754Z 2118/2218 05010KT P6SM SCT030
     FM212100 06008KT P6SM SKC
     FM220200 VRB03KT P6SM SKC
     FM221400 27006KT P6SM FEW030 SCT250=



000
FTUS42 KJAX 211700 RRA
TAFCRG
TAF
KCRG 211754Z 2118/2218 02010KT P6SM SCT030
     FM212100 06008KT P6SM SCT045
     FM220200 05003KT P6SM SKC
     FM221400 27006KT P6SM FEW030 SCT250=



000
FTUS42 KJAX 211700 RRA
TAFJAX
TAF
KJAX 211754Z 2118/2218 03010KT P6SM BKN040
     FM212100 06008KT P6SM SCT045
     FM220200 05002KT P6SM SKC
     FM221400 27006KT P6SM FEW030 SCT250=



000
FTUS42 KJAX 211700 RRA
TAFGNV
TAF
KGNV 211754Z 2118/2218 03008KT P6SM BKN030
     FM212000 03009KT P6SM SCT035
     FM212200 VRB06KT P6SM FEW045
      TEMPO 2208/2212 4SM BR
     FM221400 27006KT P6SM FEW030 SCT250=



000
FTUS42 KJAX 211600 AAB
TAFGNV
TAF AMD
KGNV 211602Z 2116/2212 03008KT P6SM SCT025
      TEMPO 2116/2118 BKN025
     FM211800 04009KT P6SM SCT030
     FM212200 VRB06KT P6SM FEW045=



000
FTUS42 KJAX 211500 AAA
TAFGNV
TAF AMD
KGNV 211510Z 2115/2212 04009KT P6SM BKN025
     FM211900 04009KT P6SM SCT030
     FM212200 VRB06KT P6SM FEW045=



000
FTUS42 KJAX 211100
TAFJAX
TAF
KJAX 211120Z 2112/2212 35006KT P6SM BKN025
      TEMPO 2116/2118 36010G16KT SCT030
     FM211800 01009KT P6SM SCT035
     FM212100 06008KT P6SM SCT045
     FM220200 05002KT P6SM SKC=



000
FTUS42 KJAX 211100
TAFCRG
TAF
KCRG 211120Z 2112/2212 35006KT P6SM BKN025
      TEMPO 2116/2118 36010G16KT SCT030
     FM211800 01009KT P6SM SCT035
     FM212100 06008KT P6SM SCT045
     FM220200 05003KT P6SM SKC=



000
FTUS42 KJAX 211100
TAFGNV
TAF
KGNV 211120Z 2112/2212 34005KT P6SM SCT025
      TEMPO 2112/2116 BKN025
     FM211600 01008KT P6SM SCT040
     FM212200 VRB06KT P6SM FEW045=



000
FTUS42 KJAX 211100
TAFSSI
TAF
KSSI 211120Z 2112/2212 34005KT P6SM FEW025 SCT035
      TEMPO 2112/2116 BKN025
     FM211600 01010G16KT P6SM SCT040
     FM212100 04008KT P6SM SKC
     FM220200 VRB05KT P6SM SKC=



000
FTUS42 KJAX 210700 AAA
TAFGNV
TAF AMD
KGNV 210725Z 2107/2206 VRB05KT P6SM BKN025
      TEMPO 2107/2111 BKN020
     FM211400 01011G16KT P6SM SCT030
     FM212100 04008KT P6SM SCT045=



000
FTUS42 KJAX 210600 AAA
TAFCRG
TAF AMD
KCRG 210614Z 2106/2206 35006KT P6SM BKN035
      TEMPO 2106/2110 BKN030
     FM211400 01012G18KT P6SM SCT030
     FM212200 04010KT P6SM SCT045=



000
FTUS42 KJAX 210500
TAFSSI
TAF
KSSI 210525Z 2106/2206 35005KT P6SM SCT045
      TEMPO 2108/2112 BKN025
     FM211400 01012G18KT P6SM SCT025
     FM212200 04008KT P6SM SCT035=



000
FTUS42 KJAX 210500
TAFGNV
TAF
KGNV 210525Z 2106/2206 VRB05KT P6SM BKN035
      TEMPO 2107/2111 BKN010
     FM211400 01011G16KT P6SM SCT030
     FM212100 04008KT P6SM SCT045=



000
FTUS42 KJAX 210500
TAFCRG
TAF
KCRG 210525Z 2106/2206 35006KT P6SM BKN035
     FM211400 01012G18KT P6SM SCT030
     FM212200 04010KT P6SM SCT045=



000
FTUS42 KJAX 210500
TAFJAX
TAF
KJAX 210525Z 2106/2206 33006KT P6SM BKN035
     FM211400 01011G16KT P6SM SCT030
     FM212100 04008KT P6SM SCT045=



000
FTUS42 KJAX 210200 AAA
TAFGNV
TAF AMD
KGNV 210252Z 2103/2124 36006KT P6SM SCT025 BKN035
     FM211400 01010KT P6SM SCT025=



000
FTUS42 KJAX 210200 AAA
TAFCRG
TAF AMD
KCRG 210251Z 2103/2124 36008KT P6SM SCT025 BKN035
     FM211400 01011KT P6SM SCT025=



000
FTUS42 KJAX 210200 AAA
TAFJAX
TAF AMD
KJAX 210250Z 2103/2124 36007KT P6SM SCT025 BKN035
     FM211400 01011KT P6SM SCT025=



000
FTUS42 KJAX 210200 AAA
TAFSSI
TAF AMD
KSSI 210246Z 2103/2124 35008KT P6SM SCT025 BKN040
     FM211400 01011KT P6SM SCT035=



000
FTUS42 KJAX 202300
TAFGNV
TAF
KGNV 202326Z 2100/2124 36006KT P6SM BKN015 OVC025
     FM211400 01010KT P6SM SCT025=



000
FTUS42 KJAX 202300
TAFCRG
TAF
KCRG 202326Z 2100/2124 36008KT P6SM SCT015 OVC025
     FM211400 01011KT P6SM SCT025=



000
FTUS42 KJAX 202300
TAFSSI
TAF
KSSI 202326Z 2100/2124 35008KT P6SM SCT020 BKN030
     FM211400 01011KT P6SM SCT030=



000
FTUS42 KJAX 202300
TAFJAX
TAF
KJAX 202326Z 2100/2124 36007KT P6SM SCT015 OVC025
     FM211400 01011KT P6SM SCT025=



000
FTUS42 KJAX 202100 AAA
TAFSSI
TAF AMD
KSSI 202109Z 2021/2118 36010KT P6SM SCT015 BKN025
     FM211400 01011KT P6SM SCT020=



000
FTUS42 KJAX 202100 AAB
TAFCRG
TAF AMD
KCRG 202102Z 2021/2118 35012KT P6SM OVC015
     FM210000 35008KT P6SM OVC015
     FM211400 01011KT P6SM SCT020=



000
FTUS42 KJAX 202000 AAA
TAFJAX
TAF AMD
KJAX 202052Z 2021/2118 35012KT P6SM OVC015
     FM202300 35007KT P6SM OVC015
     FM211400 01011KT P6SM SCT020=



000
FTUS42 KJAX 201700 AAA
TAFCRG
TAF AMD
KCRG 201747Z 2018/2118 36012G18KT P6SM FEW007 OVC015
      TEMPO 2018/2022 6SM -RA
     FM210000 02011KT P6SM SCT015 BKN025
     FM210800 01010KT P6SM SCT010 BKN020
     FM211400 01011KT P6SM SCT020=



000
FTUS42 KJAX 201700 AAA
TAFJAX
TAF AMD
KJAX 201746Z 2018/2118 36012G18KT P6SM FEW007 OVC015
      TEMPO 2018/2022 6SM -RA
     FM210000 01010KT P6SM SCT015 BKN025
     FM210700 36007KT P6SM SCT010 BKN020
     FM211400 01011KT P6SM SCT020=



000
FTUS42 KJAX 201700
TAFGNV
TAF
KGNV 201732Z 2018/2118 31010G15KT P6SM OVC015
     FM210000 01010KT P6SM SCT015 BKN025
     FM210600 35006KT P6SM FEW015 SCT030
     FM211400 01010KT P6SM SCT030=



000
FTUS42 KJAX 201700
TAFSSI
TAF
KSSI 201732Z 2018/2118 36010G15KT P6SM SCT007 OVC015
      TEMPO 2018/2020 5SM -RA OVC008
     FM210000 02011KT P6SM SCT015 BKN025
     FM210800 02010KT P6SM SCT010 BKN020
     FM211400 01011KT P6SM SCT020=



000
FTUS42 KJAX 201700
TAFCRG
TAF
KCRG 201732Z 2018/2118 36012G18KT P6SM FEW007 OVC015
     FM210000 02011KT P6SM SCT015 BKN025
     FM210800 01010KT P6SM SCT010 BKN020
     FM211400 01011KT P6SM SCT020=



000
FTUS42 KJAX 201700
TAFJAX
TAF
KJAX 201732Z 2018/2118 36012G18KT P6SM FEW007 OVC015
     FM210000 01010KT P6SM SCT015 BKN025
     FM210700 36007KT P6SM SCT010 BKN020
     FM211400 01011KT P6SM SCT020=



000
FTUS42 KJAX 201600 AAA
TAFSSI
TAF AMD
KSSI 201612Z 2016/2112 36012G20KT P6SM SCT008 OVC015
      TEMPO 2016/2020 5SM -RA OVC008
     FM210000 02011KT P6SM SCT015 BKN025
     FM210800 02010KT P6SM SCT010 BKN020=



000
FTUS42 KJAX 201100
TAFJAX
TAF
KJAX 201120Z 2012/2112 35010KT P6SM -DZ SCT010 BKN015 OVC025
      TEMPO 2012/2016 OVC006
     FM201600 36013G25KT P6SM SCT010 BKN015
     FM210000 01010KT P6SM SCT015 BKN025
     FM210700 36007KT P6SM SCT010 BKN020=



000
FTUS42 KJAX 201100
TAFCRG
TAF
KCRG 201120Z 2012/2112 35012KT P6SM -DZ SCT010 BKN015 OVC025
      TEMPO 2012/2016 OVC006
     FM201600 36017G28KT P6SM SCT010 BKN015
     FM210000 02011KT P6SM SCT015 BKN025
     FM210800 01010KT P6SM SCT010 BKN020=



000
FTUS42 KJAX 201100
TAFSSI
TAF
KSSI 201120Z 2012/2112 35010G18KT P6SM -DZ SCT010 BKN015 OVC020
      TEMPO 2012/2016 OVC006
     FM201600 01016G28KT P6SM SCT010 BKN015
     FM210000 02011KT P6SM SCT015 BKN025
     FM210800 02010KT P6SM SCT010 BKN020=



000
FTUS42 KJAX 201100
TAFGNV
TAF
KGNV 201120Z 2012/2112 36008KT P6SM SCT010 BKN015 OVC025
      TEMPO 2012/2016 OVC006
     FM201600 36012G20KT P6SM SCT010 BKN025
     FM210000 01010KT P6SM SCT015 SCT030
     FM210600 35006KT P6SM FEW015 SCT030=



000
FTUS42 KJAX 201000 AAC
TAFCRG
TAF AMD
KCRG 201009Z 2010/2106 36011G20KT P6SM -DZ SCT010 BKN015 OVC025
      TEMPO 2010/2014 OVC006
     FM201600 36017G28KT P6SM SCT010 BKN015
     FM210000 02011KT P6SM SCT015 BKN025=



000
FTUS42 KJAX 200900 AAC
TAFSSI
TAF AMD
KSSI 200949Z 2010/2106 36010G18KT P6SM -DZ SCT010 BKN015 OVC020
      TEMPO 2010/2014 OVC006
     FM201600 36017G28KT P6SM SCT010 BKN015
     FM210000 02011KT P6SM SCT015 BKN025=



000
FTUS42 KJAX 200900 AAA
TAFGNV
TAF AMD
KGNV 200948Z 2010/2106 36008KT P6SM SCT010 BKN015 OVC025
      TEMPO 2010/2014 OVC006
     FM201600 36012G20KT P6SM SCT010 BKN015
     FM210000 01010KT P6SM SCT015 BKN025=



000
FTUS42 KJAX 200900 AAB
TAFCRG
TAF AMD
KCRG 200947Z 2010/2106 36011G20KT P6SM SCT010 BKN015 OVC025
      TEMPO 2010/2014 OVC006
     FM201600 36017G28KT P6SM SCT010 BKN015
     FM210000 02011KT P6SM SCT015 BKN025=



000
FTUS42 KJAX 200900 AAB
TAFJAX
TAF AMD
KJAX 200946Z 2010/2106 36010KT P6SM SCT010 BKN015 OVC025
      TEMPO 2010/2014 OVC006
     FM201600 36016G25KT P6SM SCT010 BKN015
     FM210000 01010KT P6SM SCT015 BKN025=



000
FTUS42 KJAX 200800 AAA
TAFJAX
TAF AMD
KJAX 200838Z 2009/2106 36009KT P6SM BKN008 OVC020
      TEMPO 2009/2010 4SM BR OVC005
     FM201000 36013G22KT P6SM SCT010 BKN015 OVC025
      TEMPO 2010/2014 4SM BR OVC005
     FM201600 36016G25KT P6SM SCT010 BKN015
     FM210000 01010KT P6SM SCT015 BKN025=



000
FTUS42 KJAX 200800 AAB
TAFSSI
TAF AMD
KSSI 200837Z 2009/2106 01010G18KT P6SM SCT010 OVC012
      TEMPO 2009/2010 4SM -DZ OVC005
     FM201000 36012G23KT P6SM SCT008 BKN010 OVC020
      TEMPO 2010/2014 4SM -DZ OVC005
     FM201600 36017G28KT P6SM SCT010 BKN015
     FM210000 02011KT P6SM SCT015 BKN025=



    US Dept of Commerce
    National Oceanic and Atmospheric Administration
    National Weather Service
    1325 East West Highway
    Silver Spring, MD 20910
    Page Author: NWS Internet Services Team
Disclaimer
Information Quality
Credits
Glossary
Privacy Policy
Freedom of Information Act (FOIA)
About Us
Career Opportunities